Time;durP1;ratioP1;P1;durP2;ratioP2;P2;SDS_P1;SDS_P2;PMS_P1;PMS_P2;Temp;Humidity;BMP_temperature;BMP_pressure;BME280_temperature;BME280_humidity;BME280_pressure;Samples;Min_cycle;Max_cycle;Signal;HPM_P1;HPM_P2
2021/11/07 00:05:06;;;;;;;2.30;2.20;;;8.60;98.60;;;;;;5073288;28;20036;-80
2021/11/07 00:10:26;;;;;;;2.38;2.17;;;8.50;98.70;;;;;;5072982;28;20044;-81
2021/11/07 00:13:00;;;;;;;2.20;2.00;;;8.50;98.50;;;;;;5073071;28;20024;-80
2021/11/07 00:15:26;;;;;;;2.45;2.25;;;8.50;98.40;;;;;;5071739;28;20097;-80
2021/11/07 00:17:55;;;;;;;2.35;2.22;;;8.50;98.30;;;;;;5072969;28;20368;-81
2021/11/07 00:20:26;;;;;;;1.75;1.60;;;8.50;98.50;;;;;;5072958;28;20029;-80
2021/11/07 00:23:13;;;;;;;2.40;2.20;;;8.50;98.40;;;;;;5073081;28;20016;-81
2021/11/07 00:25:54;;;;;;;1.80;1.70;;;8.60;98.40;;;;;;5072807;28;20544;-81
2021/11/07 00:28:27;;;;;;;2.80;2.60;;;8.50;98.70;;;;;;5071719;28;20031;-81
2021/11/07 00:33:39;;;;;;;3.22;2.33;;;8.40;99.20;;;;;;5073020;28;20032;-81
2021/11/07 00:43:46;;;;;;;2.45;2.20;;;8.50;98.80;;;;;;5072927;28;20040;-81
2021/11/07 00:46:20;;;;;;;2.10;1.85;;;8.50;98.80;;;;;;5072794;28;20027;-81
2021/11/07 00:49:23;;;;;;;2.40;2.17;;;8.60;98.80;;;;;;5072865;28;20025;-80
2021/11/07 00:54:40;;;;;;;2.15;2.05;;;8.50;98.90;;;;;;5072668;28;20402;-80
2021/11/07 00:57:19;;;;;;;2.75;2.10;;;8.50;99.20;;;;;;5072588;28;20031;-81
2021/11/07 00:59:54;;;;;;;2.00;1.90;;;8.40;99.50;;;;;;5071488;28;20016;-81
2021/11/07 01:02:31;;;;;;;1.90;1.80;;;8.40;99.70;;;;;;5071448;28;20063;-81
2021/11/07 01:04:58;;;;;;;1.90;1.75;;;8.40;99.90;;;;;;5072732;28;20107;-82
2021/11/07 01:07:24;;;;;;;1.80;1.70;;;8.40;99.60;;;;;;5072459;28;20029;-81
2021/11/07 01:09:55;;;;;;;2.05;1.70;;;8.50;99.40;;;;;;5071378;28;20035;-81
2021/11/07 01:12:21;;;;;;;1.77;1.67;;;8.50;98.90;;;;;;5071263;28;20090;-80
2021/11/07 01:14:55;;;;;;;2.75;1.75;;;8.50;98.60;;;;;;5071175;28;20472;-81
2021/11/07 01:17:21;;;;;;;3.30;1.80;;;8.50;98.70;;;;;;5072534;28;20496;-80
2021/11/07 01:19:48;;;;;;;1.73;1.63;;;8.50;99.00;;;;;;5071217;28;20021;-80
2021/11/07 01:22:21;;;;;;;1.92;1.83;;;8.50;99.20;;;;;;5072498;28;20052;-80
2021/11/07 01:24:53;;;;;;;1.92;1.73;;;8.40;99.30;;;;;;5072425;28;20036;-81
2021/11/07 01:27:31;;;;;;;1.58;1.48;;;8.50;99.30;;;;;;5071136;28;20025;-80
2021/11/07 01:30:00;;;;;;;1.73;1.60;;;8.50;99.40;;;;;;5072333;28;20028;-80
2021/11/07 01:32:26;;;;;;;1.55;1.45;;;8.70;99.50;;;;;;5072510;28;20390;-80
2021/11/07 01:34:59;;;;;;;1.60;1.50;;;8.70;98.90;;;;;;5072161;28;20055;-81
2021/11/07 01:37:29;;;;;;;2.25;1.70;;;8.70;98.50;;;;;;5072252;28;20490;-80
2021/11/07 01:40:11;;;;;;;1.80;1.70;;;8.60;98.30;;;;;;5072102;28;20048;-75
2021/11/07 01:42:41;;;;;;;1.40;1.30;;;8.60;98.40;;;;;;5070814;28;20099;-74
2021/11/07 01:45:24;;;;;;;1.70;1.60;;;8.60;98.40;;;;;;5071445;28;20082;-74
2021/11/07 01:47:54;;;;;;;1.80;1.42;;;8.60;98.50;;;;;;5073058;28;20056;-74
2021/11/07 01:50:20;;;;;;;1.80;1.70;;;8.50;99.20;;;;;;5074407;28;20070;-74
2021/11/07 01:52:53;;;;;;;2.17;1.88;;;8.40;99.50;;;;;;5074407;28;20039;-74
2021/11/07 01:55:19;;;;;;;1.58;1.48;;;8.40;99.50;;;;;;5072940;28;20028;-75
2021/11/07 01:57:49;;;;;;;2.08;1.90;;;8.40;99.70;;;;;;5074169;28;20113;-75
2021/11/07 02:00:15;;;;;;;3.00;1.63;;;8.30;99.90;;;;;;5072797;28;20059;-75
2021/11/07 02:02:40;;;;;;;2.13;1.92;;;8.30;99.90;;;;;;5072293;28;20067;-75
2021/11/07 02:05:07;;;;;;;1.90;1.80;;;8.30;99.90;;;;;;5072887;28;20023;-75
2021/11/07 02:07:33;;;;;;;1.40;1.30;;;8.20;99.90;;;;;;5072775;28;20063;-75
2021/11/07 02:10:00;;;;;;;1.42;1.40;;;8.20;99.90;;;;;;5074125;28;20050;-75
2021/11/07 02:12:26;;;;;;;1.40;1.30;;;8.10;99.90;;;;;;5072702;28;20394;-75
2021/11/07 02:14:52;;;;;;;1.70;1.60;;;8.10;99.90;;;;;;5072771;28;20489;-74
2021/11/07 02:17:18;;;;;;;1.63;1.52;;;8.10;99.90;;;;;;5073240;28;20243;-75
2021/11/07 02:19:46;;;;;;;1.63;1.52;;;8.10;99.90;;;;;;5073274;28;20086;-75
2021/11/07 02:22:12;;;;;;;1.70;1.60;;;8.10;99.90;;;;;;5073405;28;20017;-75
2021/11/07 02:24:40;;;;;;;1.83;1.65;;;8.00;99.90;;;;;;5073755;28;20024;-75
2021/11/07 02:27:06;;;;;;;1.70;1.60;;;8.00;99.90;;;;;;5073587;28;20087;-75
2021/11/07 02:29:33;;;;;;;1.52;1.42;;;8.00;99.90;;;;;;5073551;28;20025;-75
2021/11/07 02:31:59;;;;;;;1.67;1.58;;;8.00;99.90;;;;;;5073704;28;20095;-75
2021/11/07 02:34:29;;;;;;;1.65;1.55;;;8.00;99.90;;;;;;5073087;28;20079;-75
2021/11/07 02:36:56;;;;;;;1.80;1.70;;;8.00;99.90;;;;;;5072074;28;20031;-74
2021/11/07 02:39:24;;;;;;;1.65;1.55;;;8.00;99.90;;;;;;5073581;28;20052;-74
2021/11/07 02:41:51;;;;;;;1.92;1.40;;;8.00;99.90;;;;;;5073448;28;20099;-74
2021/11/07 02:44:40;;;;;;;2.97;1.45;;;7.90;99.90;;;;;;5073340;28;20095;-74
2021/11/07 02:47:07;;;;;;;1.45;1.23;;;7.90;99.90;;;;;;5073365;28;20588;-74
2021/11/07 02:49:34;;;;;;;1.60;1.50;;;7.90;99.90;;;;;;5073165;28;20024;-74
2021/11/07 02:52:01;;;;;;;2.60;1.30;;;7.80;99.90;;;;;;5073354;28;20025;-74
2021/11/07 02:54:27;;;;;;;1.83;1.60;;;7.90;99.90;;;;;;5073112;28;20398;-75
2021/11/07 02:56:57;;;;;;;1.52;1.42;;;8.00;99.90;;;;;;5071721;28;20043;-75
2021/11/07 02:59:30;;;;;;;2.55;1.33;;;8.10;99.80;;;;;;5071853;28;20040;-75
2021/11/07 03:01:56;;;;;;;1.15;1.00;;;8.20;99.50;;;;;;5073063;28;20103;-75
2021/11/07 03:04:24;;;;;;;2.25;1.40;;;8.30;99.20;;;;;;5071605;28;20031;-75
2021/11/07 03:06:50;;;;;;;1.15;1.13;;;8.30;98.60;;;;;;5072975;28;20028;-75
2021/11/07 03:09:22;;;;;;;12.73;8.30;;;8.40;98.70;;;;;;5071439;28;20020;-74
2021/11/07 03:11:50;;;;;;;25.20;17.98;;;8.40;98.70;;;;;;5071921;28;20028;-75
2021/11/07 03:14:28;;;;;;;10.20;8.77;;;8.50;98.50;;;;;;5073734;28;20127;-75
2021/11/07 03:16:54;;;;;;;23.98;16.38;;;8.50;98.50;;;;;;5073661;28;20539;-74
2021/11/07 03:19:22;;;;;;;4.10;3.80;;;8.60;98.90;;;;;;5073651;28;20048;-74
2021/11/07 03:21:50;;;;;;;2.67;2.47;;;8.60;98.90;;;;;;5073615;28;20022;-75
2021/11/07 03:24:17;;;;;;;2.65;1.70;;;8.60;98.30;;;;;;5073693;28;20016;-74
2021/11/07 03:26:43;;;;;;;1.48;1.38;;;8.60;97.90;;;;;;5073680;28;20017;-74
2021/11/07 03:29:10;;;;;;;1.42;1.17;;;8.70;97.50;;;;;;5073690;28;20020;-75
2021/11/07 03:34:18;;;;;;;1.35;1.25;;;8.80;97.10;;;;;;5073449;28;20024;-75
2021/11/07 03:36:47;;;;;;;1.00;1.00;;;8.90;97.50;;;;;;5071625;28;20045;-75
2021/11/07 03:39:14;;;;;;;1.00;0.95;;;8.90;97.30;;;;;;5073491;28;20056;-74
2021/11/07 03:41:41;;;;;;;1.38;1.10;;;8.90;96.90;;;;;;5073478;28;20390;-74
2021/11/07 03:44:07;;;;;;;1.83;1.30;;;8.90;96.90;;;;;;5073182;28;20470;-74
2021/11/07 03:46:34;;;;;;;1.45;1.00;;;9.00;97.30;;;;;;5071692;28;20561;-75
2021/11/07 03:49:01;;;;;;;1.33;1.20;;;8.90;97.20;;;;;;5073333;28;20102;-74
2021/11/07 03:51:28;;;;;;;1.42;1.02;;;8.90;97.20;;;;;;5071963;28;20032;-74
2021/11/07 03:53:54;;;;;;;0.90;0.90;;;8.80;97.20;;;;;;5064212;28;20090;-74
2021/11/07 03:56:20;;;;;;;2.25;1.20;;;8.80;96.10;;;;;;5051328;28;20437;-75
2021/11/07 03:58:46;;;;;;;0.93;0.93;;;8.90;95.30;;;;;;5053028;28;20134;-75
2021/11/07 04:01:11;;;;;;;1.20;1.10;;;9.00;95.00;;;;;;5051494;28;20035;-75
2021/11/07 04:03:37;;;;;;;0.80;0.80;;;9.10;95.20;;;;;;5053346;28;20100;-80
2021/11/07 04:06:03;;;;;;;0.90;0.90;;;9.00;95.30;;;;;;5051506;28;20460;-81
2021/11/07 04:08:29;;;;;;;1.65;1.05;;;9.00;95.70;;;;;;5052042;28;20032;-81
2021/11/07 04:10:55;;;;;;;1.08;0.98;;;9.00;95.80;;;;;;5052114;28;20029;-81
2021/11/07 04:13:21;;;;;;;0.70;0.70;;;9.00;96.00;;;;;;5051975;28;20112;-81
2021/11/07 04:15:47;;;;;;;1.15;1.05;;;8.90;95.90;;;;;;5062415;28;20060;-81
2021/11/07 04:18:13;;;;;;;0.82;0.80;;;8.90;96.00;;;;;;5070344;28;20509;-80
2021/11/07 04:20:39;;;;;;;1.60;0.98;;;8.90;95.90;;;;;;5071840;28;20036;-81
2021/11/07 04:23:05;;;;;;;1.25;1.15;;;8.90;95.50;;;;;;5071846;28;20077;-81
2021/11/07 04:25:31;;;;;;;1.20;1.10;;;8.90;95.90;;;;;;5071730;28;20025;-81
2021/11/07 04:27:57;;;;;;;0.77;0.77;;;8.90;95.90;;;;;;5071628;28;20066;-81
2021/11/07 04:30:23;;;;;;;0.65;0.65;;;9.00;96.00;;;;;;5073667;28;20052;-81
2021/11/07 04:32:49;;;;;;;0.93;0.82;;;8.90;96.20;;;;;;5073113;28;20040;-81
2021/11/07 04:35:15;;;;;;;2.97;0.80;;;8.90;95.90;;;;;;5071125;28;20165;-80
2021/11/07 04:37:43;;;;;;;0.60;0.60;;;8.90;95.70;;;;;;5071666;28;20032;-80
2021/11/07 04:40:11;;;;;;;1.58;0.82;;;8.90;95.60;;;;;;5070310;28;20023;-80
2021/11/07 04:42:37;;;;;;;1.00;1.00;;;9.00;95.60;;;;;;5069656;28;20024;-81
2021/11/07 04:45:05;;;;;;;0.70;0.70;;;9.00;95.30;;;;;;5070118;28;20433;-80
2021/11/07 04:47:31;;;;;;;0.88;0.88;;;9.10;95.10;;;;;;5071425;28;20021;-81
2021/11/07 04:49:57;;;;;;;1.83;0.98;;;9.10;94.90;;;;;;5071751;28;20442;-80
2021/11/07 04:52:22;;;;;;;1.00;0.93;;;9.20;95.10;;;;;;5071404;28;20051;-79
2021/11/07 04:54:49;;;;;;;0.80;0.80;;;9.20;94.90;;;;;;5071366;28;20029;-80
2021/11/07 04:57:14;;;;;;;1.00;1.00;;;9.20;94.60;;;;;;5071504;28;20107;-80
2021/11/07 04:59:40;;;;;;;0.88;0.88;;;9.20;94.50;;;;;;5071244;28;20048;-80
2021/11/07 05:02:06;;;;;;;1.25;1.10;;;9.30;94.50;;;;;;5071492;28;20150;-81
2021/11/07 05:04:35;;;;;;;0.95;0.95;;;9.30;94.80;;;;;;5069965;28;20107;-80
2021/11/07 05:07:01;;;;;;;2.72;0.90;;;9.30;94.50;;;;;;5070039;28;20035;-80
2021/11/07 05:09:28;;;;;;;1.33;1.23;;;9.30;94.80;;;;;;5071318;28;20033;-80
2021/11/07 05:11:54;;;;;;;1.15;1.00;;;9.30;94.60;;;;;;5070005;28;20067;-80
2021/11/07 05:14:20;;;;;;;0.90;0.90;;;9.30;94.60;;;;;;5071183;28;20028;-80
2021/11/07 05:16:45;;;;;;;1.00;1.00;;;9.30;94.70;;;;;;5070890;28;20505;-80
2021/11/07 05:19:11;;;;;;;0.82;0.82;;;9.30;94.30;;;;;;5074721;28;20024;-80
2021/11/07 05:21:39;;;;;;;0.90;0.90;;;9.40;94.30;;;;;;5075023;28;20474;-80
2021/11/07 05:24:06;;;;;;;0.80;0.80;;;9.40;94.70;;;;;;5074960;28;20030;-79
2021/11/07 05:26:33;;;;;;;2.78;1.00;;;9.40;94.40;;;;;;5074693;28;20237;-81
2021/11/07 05:28:59;;;;;;;0.80;0.80;;;9.40;94.50;;;;;;5073603;28;20543;-81
2021/11/07 05:31:25;;;;;;;0.90;0.90;;;9.40;94.60;;;;;;5074759;28;20025;-80
2021/11/07 05:33:54;;;;;;;1.45;1.10;;;9.40;94.40;;;;;;5073678;28;20090;-80
2021/11/07 05:36:20;;;;;;;0.85;0.85;;;9.50;94.40;;;;;;5074416;28;20076;-80
2021/11/07 05:38:46;;;;;;;1.02;0.80;;;9.50;94.30;;;;;;5074766;28;20483;-80
2021/11/07 05:41:11;;;;;;;0.68;0.68;;;9.50;94.40;;;;;;5074679;28;20528;-79
2021/11/07 05:43:38;;;;;;;0.80;0.80;;;9.50;94.60;;;;;;5073600;28;20082;-79
2021/11/07 05:46:04;;;;;;;3.38;0.98;;;9.50;94.40;;;;;;5073307;28;20074;-81
2021/11/07 05:48:30;;;;;;;0.80;0.80;;;9.50;94.10;;;;;;5074687;28;20020;-80
2021/11/07 05:50:58;;;;;;;0.80;0.80;;;9.50;94.00;;;;;;5074720;28;20429;-80
2021/11/07 05:53:24;;;;;;;1.17;1.00;;;9.60;94.00;;;;;;5074434;28;20020;-80
2021/11/07 05:55:50;;;;;;;1.15;0.90;;;9.60;93.60;;;;;;5072933;28;20039;-80
2021/11/07 05:58:16;;;;;;;0.88;0.88;;;9.60;93.40;;;;;;5074240;28;20020;-80
2021/11/07 06:00:42;;;;;;;1.17;0.77;;;9.70;93.60;;;;;;5074377;28;20040;-80
2021/11/07 06:03:08;;;;;;;0.90;0.73;;;9.70;93.50;;;;;;5072807;28;20066;-80
2021/11/07 06:05:37;;;;;;;0.77;0.77;;;9.70;93.20;;;;;;5074322;28;20448;-80
2021/11/07 06:08:04;;;;;;;1.77;0.93;;;9.80;92.50;;;;;;5074109;28;20406;-81
2021/11/07 06:10:30;;;;;;;1.02;1.02;;;9.80;92.50;;;;;;5074198;28;20032;-80
2021/11/07 06:12:56;;;;;;;1.88;0.68;;;9.80;92.80;;;;;;5074180;28;20111;-81
2021/11/07 06:15:22;;;;;;;1.00;0.82;;;9.80;92.60;;;;;;5072755;28;20158;-80
2021/11/07 06:17:48;;;;;;;1.05;0.95;;;9.80;92.10;;;;;;5072659;28;20386;-80
2021/11/07 06:20:13;;;;;;;0.73;0.73;;;9.90;91.80;;;;;;5072771;28;20280;-80
2021/11/07 06:22:39;;;;;;;0.65;0.65;;;9.90;92.00;;;;;;5074062;28;20398;-80
2021/11/07 06:25:08;;;;;;;0.98;0.85;;;9.80;92.30;;;;;;5073694;28;20155;-81
2021/11/07 06:27:35;;;;;;;0.98;0.90;;;9.80;92.70;;;;;;5072640;28;20052;-79
2021/11/07 06:30:03;;;;;;;1.73;0.77;;;9.80;92.80;;;;;;5073339;28;20500;-80
2021/11/07 06:32:32;;;;;;;0.80;0.80;;;9.80;93.00;;;;;;5072586;28;20102;-80
2021/11/07 06:34:57;;;;;;;0.77;0.77;;;9.80;93.00;;;;;;5073295;28;20049;-80
2021/11/07 06:37:23;;;;;;;0.82;0.60;;;9.80;93.00;;;;;;5073566;28;20497;-80
2021/11/07 06:39:50;;;;;;;0.57;0.50;;;9.70;93.20;;;;;;5073633;28;20033;-80
2021/11/07 06:42:16;;;;;;;0.98;0.98;;;9.80;93.30;;;;;;5073604;28;20020;-80
2021/11/07 06:44:41;;;;;;;1.13;1.02;;;9.80;93.20;;;;;;5073380;28;20100;-80
2021/11/07 06:47:08;;;;;;;2.88;1.10;;;9.80;93.00;;;;;;5072309;28;20032;-80
2021/11/07 06:49:34;;;;;;;1.10;0.90;;;9.80;93.10;;;;;;5072052;28;20108;-80
2021/11/07 06:52:00;;;;;;;0.70;0.70;;;9.80;93.30;;;;;;5073627;28;20024;-80
2021/11/07 06:54:27;;;;;;;0.90;0.90;;;9.80;93.50;;;;;;5073364;28;20439;-81
2021/11/07 06:56:54;;;;;;;0.75;0.75;;;9.90;93.60;;;;;;5073277;28;20039;-81
2021/11/07 06:59:19;;;;;;;0.90;0.90;;;9.90;94.10;;;;;;5072071;28;20112;-79
2021/11/07 07:01:45;;;;;;;0.55;0.55;;;9.90;93.70;;;;;;5072984;28;20112;-81
2021/11/07 07:04:11;;;;;;;0.73;0.70;;;9.90;93.40;;;;;;5073258;28;20032;-80
2021/11/07 07:06:37;;;;;;;0.55;0.55;;;10.00;93.40;;;;;;5071568;28;20028;-80
2021/11/07 07:09:07;;;;;;;0.50;0.50;;;10.00;93.00;;;;;;5073068;28;20509;-80
2021/11/07 07:14:08;;;;;;;2.15;0.80;;;10.10;93.50;;;;;;5072967;28;20487;-80
2021/11/07 07:27:27;;;;;;;1.52;0.65;;;10.40;94.10;;;;;;5072639;28;20036;-80
2021/11/07 07:29:58;;;;;;;0.85;0.85;;;10.40;94.00;;;;;;5072408;28;20035;-80
2021/11/07 07:34:53;;;;;;;0.90;0.90;;;10.50;91.10;;;;;;5072292;28;20387;-80
2021/11/07 07:37:19;;;;;;;0.80;0.80;;;10.50;91.90;;;;;;5072443;28;20020;-80
2021/11/07 07:39:45;;;;;;;1.75;1.00;;;10.50;92.00;;;;;;5071846;28;20378;-80
2021/11/07 07:42:11;;;;;;;0.50;0.50;;;10.50;91.60;;;;;;5071934;28;20025;-80
2021/11/07 07:44:37;;;;;;;1.35;0.70;;;10.50;92.00;;;;;;5072182;28;20048;-80
2021/11/07 07:47:03;;;;;;;0.80;0.80;;;10.50;92.10;;;;;;5072056;28;20028;-80
2021/11/07 07:49:29;;;;;;;1.30;1.20;;;10.50;92.30;;;;;;5070985;28;20417;-80
2021/11/07 07:51:56;;;;;;;1.15;1.05;;;10.50;92.60;;;;;;5072298;28;20032;-80
2021/11/07 07:54:24;;;;;;;0.98;0.98;;;10.50;92.80;;;;;;5072176;28;20021;-80
2021/11/07 07:56:51;;;;;;;1.55;0.60;;;10.50;92.80;;;;;;5072149;28;20024;-80
2021/11/07 07:59:17;;;;;;;1.10;1.00;;;10.50;92.70;;;;;;5072121;28;20020;-80
2021/11/07 08:01:43;;;;;;;0.88;0.88;;;10.60;92.50;;;;;;5071995;28;20501;-80
2021/11/07 08:04:09;;;;;;;1.10;0.98;;;10.60;92.50;;;;;;5071516;28;20052;-80
2021/11/07 08:06:35;;;;;;;0.80;0.80;;;10.60;92.90;;;;;;5071263;28;20035;-81
2021/11/07 08:09:03;;;;;;;1.75;0.70;;;10.60;93.10;;;;;;5073226;28;20028;-80
2021/11/07 08:11:29;;;;;;;1.10;1.00;;;10.70;93.40;;;;;;5073488;28;20036;-79
2021/11/07 08:13:55;;;;;;;1.02;0.80;;;10.80;92.50;;;;;;5073161;28;20478;-80
2021/11/07 08:16:23;;;;;;;0.80;0.80;;;10.80;92.70;;;;;;5071640;28;20078;-80
2021/11/07 08:18:50;;;;;;;1.27;1.00;;;10.90;92.10;;;;;;5072031;28;20031;-80
2021/11/07 08:21:17;;;;;;;0.80;0.80;;;10.90;92.30;;;;;;5071857;28;20012;-80
2021/11/07 08:23:44;;;;;;;1.00;0.80;;;10.90;92.80;;;;;;5069711;28;20024;-80
2021/11/07 08:26:11;;;;;;;1.00;0.75;;;11.00;93.20;;;;;;5071927;28;20047;-81
2021/11/07 08:28:37;;;;;;;1.23;0.80;;;11.00;93.40;;;;;;5072918;28;20029;-80
2021/11/07 08:31:08;;;;;;;1.42;1.33;;;11.10;93.30;;;;;;5072682;28;20025;-81
2021/11/07 08:33:35;;;;;;;1.40;1.30;;;11.20;93.60;;;;;;5071937;28;20112;-80
2021/11/07 08:36:08;;;;;;;2.75;1.25;;;11.20;93.50;;;;;;5070351;28;20056;-81
2021/11/07 08:38:38;;;;;;;1.30;1.20;;;11.30;93.90;;;;;;5071705;28;20604;-81
2021/11/07 08:41:06;;;;;;;1.48;1.38;;;11.30;94.20;;;;;;5071555;28;20012;-81
2021/11/07 09:05:15;;;;;;;1.70;1.60;;;11.70;94.20;;;;;;5075339;28;20413;-80
2021/11/07 09:10:28;;;;;;;2.85;1.40;;;11.80;95.30;;;;;;5075613;28;20052;-80
2021/11/07 09:12:54;;;;;;;1.50;1.40;;;11.90;93.90;;;;;;5075276;28;20108;-80
2021/11/07 09:15:21;;;;;;;1.50;1.33;;;12.00;95.20;;;;;;5074944;28;20534;-80
2021/11/07 09:17:48;;;;;;;3.47;1.30;;;12.00;95.00;;;;;;5075081;28;20025;-80
2021/11/07 09:20:41;;;;;;;2.10;1.30;;;12.10;93.50;;;;;;5074959;28;20024;-80
2021/11/07 09:23:32;;;;;;;1.48;1.35;;;12.10;93.00;;;;;;5072601;28;20035;-81
2021/11/07 09:28:33;;;;;;;1.42;1.33;;;12.20;93.80;;;;;;5054969;28;20029;-80
2021/11/07 09:36:27;;;;;;;1.80;1.70;;;12.30;94.50;;;;;;5044026;28;20049;-81
2021/11/07 09:39:06;;;;;;;1.55;1.40;;;12.30;93.50;;;;;;5054432;28;20031;-80
2021/11/07 09:41:50;;;;;;;1.92;1.75;;;12.40;94.70;;;;;;5054776;28;20021;-80
2021/11/07 09:44:21;;;;;;;3.05;2.28;;;12.30;94.70;;;;;;5054575;28;20021;-79
2021/11/07 09:49:21;;;;;;;2.33;2.13;;;12.30;94.70;;;;;;5054345;28;20479;-80
2021/11/07 09:51:57;;;;;;;3.55;2.08;;;12.30;95.50;;;;;;5054310;28;20025;-80
2021/11/07 09:54:26;;;;;;;2.40;2.20;;;12.20;96.10;;;;;;5067097;28;20489;-80
2021/11/07 09:56:54;;;;;;;2.42;2.20;;;12.20;96.10;;;;;;5074257;28;20071;-80
2021/11/07 09:59:23;;;;;;;2.88;2.33;;;12.20;96.50;;;;;;5074771;28;20472;-80
2021/11/07 10:01:57;;;;;;;2.95;2.22;;;12.20;96.30;;;;;;5074042;28;20111;-80
2021/11/07 10:04:28;;;;;;;2.00;1.90;;;12.20;95.90;;;;;;5073490;28;20024;-80
2021/11/07 10:06:58;;;;;;;2.42;2.15;;;12.10;96.40;;;;;;5074054;28;20425;-79
2021/11/07 10:09:34;;;;;;;2.25;2.05;;;12.20;96.70;;;;;;5075514;28;20500;-80
2021/11/07 10:12:17;;;;;;;4.88;2.70;;;12.20;96.50;;;;;;5074272;28;20048;-80
2021/11/07 10:15:01;;;;;;;5.10;2.72;;;12.20;96.10;;;;;;5072792;28;20391;-80
2021/11/07 10:23:30;;;;;;;2.67;2.38;;;12.20;95.20;;;;;;5073911;28;20036;-80
2021/11/07 10:26:11;;;;;;;2.30;2.20;;;12.30;95.10;;;;;;5072226;28;20024;-79
2021/11/07 10:52:39;;;;;;;2.30;2.10;;;12.50;95.60;;;;;;5073657;28;20044;-74
2021/11/07 10:55:14;;;;;;;4.20;2.17;;;12.60;95.50;;;;;;5073124;28;20037;-75
2021/11/07 10:57:45;;;;;;;2.13;1.88;;;12.50;96.00;;;;;;5073212;28;20016;-74
2021/11/07 11:00:18;;;;;;;2.60;1.65;;;12.60;96.30;;;;;;5073175;28;20169;-75
2021/11/07 11:02:46;;;;;;;3.95;2.65;;;12.70;96.00;;;;;;5073170;28;20012;-74
2021/11/07 11:05:18;;;;;;;4.00;3.15;;;12.60;95.70;;;;;;5072895;28;20486;-75
2021/11/07 11:07:50;;;;;;;;;;;12.70;95.70;;;;;;5073448;28;20028;-74
2021/11/07 11:10:27;;;;;;;2.40;2.03;;;12.70;94.60;;;;;;5073506;28;19905;-75
2021/11/07 11:13:53;;;;;;;3.22;2.00;;;12.70;94.90;;;;;;5073978;28;20162;-75
2021/11/07 11:34:59;;;;;;;3.25;1.95;;;12.90;93.70;;;;;;5072646;28;20044;-75
2021/11/07 11:37:40;;;;;;;1.90;1.70;;;12.90;93.70;;;;;;5071987;28;20496;-75
2021/11/07 11:40:29;;;;;;;1.88;1.40;;;12.90;94.20;;;;;;5072776;28;20017;-75
2021/11/07 11:43:03;;;;;;;1.70;1.60;;;13.00;94.80;;;;;;5072580;28;20027;-75
2021/11/07 11:45:36;;;;;;;1.65;1.55;;;13.00;94.40;;;;;;5061954;28;20035;-75
2021/11/07 11:56:09;;;;;;;2.00;1.90;;;13.10;92.00;;;;;;5067311;28;20044;-75
2021/11/07 11:59:07;;;;;;;1.85;1.65;;;13.20;93.40;;;;;;5068281;28;20539;-75
2021/11/07 12:01:41;;;;;;;2.17;1.75;;;13.30;94.10;;;;;;5066180;28;20055;-75
2021/11/07 12:12:21;;;;;;;3.13;2.00;;;13.20;93.50;;;;;;5072738;28;20539;-75
2021/11/07 12:15:41;;;;;;;1.73;1.63;;;13.10;93.50;;;;;;5072539;28;20024;-75
2021/11/07 12:17:48;;;;;;;1.45;1.35;;;13.00;93.40;;;;;;5068126;28;20028;-79
2021/11/07 12:20:36;;;;;;;2.00;1.83;;;13.00;93.40;;;;;;5068878;28;20024;-80
2021/11/07 12:23:15;;;;;;;2.55;1.83;;;12.90;94.00;;;;;;5068835;28;20382;-80
2021/11/07 12:25:42;;;;;;;2.47;1.80;;;12.90;93.60;;;;;;5069835;28;20111;-80
2021/11/07 12:28:08;;;;;;;1.92;1.60;;;12.90;94.00;;;;;;5070073;28;20174;-79
2021/11/07 12:30:36;;;;;;;3.45;1.70;;;12.90;94.90;;;;;;5071497;28;20039;-80
2021/11/07 12:33:18;;;;;;;1.92;1.83;;;12.90;95.10;;;;;;5071020;28;20546;-80
2021/11/07 12:36:27;;;;;;;3.27;1.77;;;12.90;95.20;;;;;;5071276;28;20051;-80
2021/11/07 12:41:25;;;;;;;2.10;2.00;;;12.90;93.90;;;;;;5071810;28;20055;-80
2021/11/07 12:44:02;;;;;;;4.27;1.90;;;12.90;94.40;;;;;;5071573;28;20048;-80
2021/11/07 12:46:43;;;;;;;4.05;2.10;;;13.00;94.70;;;;;;5071270;28;20094;-80
2021/11/07 12:49:15;;;;;;;4.65;2.15;;;13.00;94.60;;;;;;5069962;28;20032;-79
2021/11/07 12:51:46;;;;;;;3.65;1.92;;;13.10;95.00;;;;;;5071238;28;20027;-80
2021/11/07 12:54:30;;;;;;;1.90;1.80;;;13.10;94.50;;;;;;5071279;28;20116;-80
2021/11/07 12:57:23;;;;;;;2.67;2.00;;;13.10;93.90;;;;;;5069513;28;20406;-79
2021/11/07 12:59:57;;;;;;;2.30;2.05;;;13.10;93.30;;;;;;5071027;28;20108;-80
2021/11/07 13:02:30;;;;;;;2.33;2.13;;;13.10;92.40;;;;;;5071381;28;20020;-80
2021/11/07 13:05:04;;;;;;;8.73;2.53;;;13.10;91.80;;;;;;5071076;28;20016;-79
2021/11/07 13:07:44;;;;;;;4.45;1.95;;;13.00;90.80;;;;;;5071258;28;20041;-79
2021/11/07 13:10:22;;;;;;;3.58;1.67;;;13.00;91.60;;;;;;5069757;28;20411;-75
2021/11/07 13:13:11;;;;;;;1.45;1.30;;;13.00;91.40;;;;;;5071195;28;20066;-75
2021/11/07 13:26:51;;;;;;;2.50;1.20;;;12.90;90.30;;;;;;5071024;28;20028;-74
2021/11/07 13:29:30;;;;;;;2.20;1.65;;;12.90;90.80;;;;;;5070874;28;20382;-74
2021/11/07 13:35:16;;;;;;;2.22;2.00;;;12.90;90.70;;;;;;5070863;28;20106;-74
2021/11/07 13:37:54;;;;;;;1.40;1.30;;;12.90;90.80;;;;;;5069720;28;20033;-74
2021/11/07 13:40:25;;;;;;;1.75;1.60;;;12.90;91.10;;;;;;5072992;28;20085;-75
2021/11/07 13:42:52;;;;;;;11.93;5.55;;;12.90;90.80;;;;;;5074220;28;20035;-75
2021/11/07 13:45:26;;;;;;;4.60;3.55;;;12.90;90.50;;;;;;5074428;28;20023;-75
2021/11/07 13:47:53;;;;;;;3.08;2.60;;;12.90;90.60;;;;;;5074449;28;20111;-75
2021/11/07 13:50:22;;;;;;;3.58;2.40;;;12.90;90.70;;;;;;5073221;28;20062;-75
2021/11/07 13:52:52;;;;;;;5.68;1.92;;;12.90;90.00;;;;;;5074571;28;20109;-74
2021/11/07 13:55:30;;;;;;;1.98;1.42;;;12.90;90.80;;;;;;5072764;28;20028;-75
2021/11/07 13:58:16;;;;;;;3.65;1.88;;;12.80;91.40;;;;;;5074200;28;20103;-75
2021/11/07 14:00:43;;;;;;;2.20;1.80;;;12.80;90.60;;;;;;5074356;28;20021;-75
2021/11/07 14:03:13;;;;;;;1.63;1.45;;;12.80;91.20;;;;;;5072974;28;20048;-75
2021/11/07 14:05:51;;;;;;;2.70;1.40;;;12.80;91.50;;;;;;5074028;28;20025;-74
2021/11/07 14:08:16;;;;;;;3.10;1.42;;;12.80;92.30;;;;;;5074105;28;20035;-75
2021/11/07 14:10:42;;;;;;;3.42;1.20;;;12.80;93.10;;;;;;5074201;28;20024;-74
2021/11/07 14:13:14;;;;;;;2.72;1.73;;;12.80;93.80;;;;;;5073951;28;20111;-75
2021/11/07 14:15:45;;;;;;;2.70;1.13;;;12.80;94.00;;;;;;5073647;28;20029;-75
2021/11/07 14:18:28;;;;;;;3.63;1.30;;;12.70;92.90;;;;;;5073326;28;20158;-75
2021/11/07 14:21:03;;;;;;;2.72;1.63;;;12.70;93.80;;;;;;5053661;28;20021;-75
2021/11/07 14:26:10;;;;;;;1.95;1.30;;;12.70;94.20;;;;;;5073652;28;20117;-75
2021/11/07 14:28:58;;;;;;;1.95;1.48;;;12.70;93.90;;;;;;5072373;28;20056;-74
2021/11/07 14:31:42;;;;;;;1.45;1.30;;;12.60;94.50;;;;;;5073731;28;20071;-75
2021/11/07 14:34:18;;;;;;;1.58;1.30;;;12.60;95.30;;;;;;5073728;28;20409;-74
2021/11/07 15:02:08;;;;;;;4.10;1.70;;;12.20;99.10;;;;;;5071879;28;20028;-74
2021/11/07 15:04:44;;;;;;;5.13;2.03;;;12.20;99.40;;;;;;5070844;28;20074;-75
2021/11/07 15:07:13;;;;;;;2.55;2.10;;;12.10;99.90;;;;;;5072500;28;20052;-74
2021/11/07 15:18:06;;;;;;;2.17;1.83;;;11.90;99.90;;;;;;5073015;28;20044;-74
2021/11/07 15:23:02;;;;;;;3.15;2.60;;;11.80;99.90;;;;;;5071094;28;20433;-75
2021/11/07 15:25:34;;;;;;;7.03;2.88;;;11.80;99.90;;;;;;5051224;28;20025;-74
2021/11/07 15:28:08;;;;;;;4.97;3.08;;;11.70;99.90;;;;;;5052320;28;20060;-74
2021/11/07 15:30:38;;;;;;;5.60;2.63;;;11.60;99.90;;;;;;5050711;28;20032;-75
2021/11/07 15:33:27;;;;;;;3.75;2.85;;;11.60;99.90;;;;;;5051853;28;20017;-74
2021/11/07 15:35:56;;;;;;;7.93;3.75;;;11.50;99.90;;;;;;5051174;28;20387;-74
2021/11/07 15:38:24;;;;;;;6.72;3.78;;;11.50;99.90;;;;;;5052009;28;20095;-74
2021/11/07 15:41:04;;;;;;;13.20;4.70;;;11.40;99.90;;;;;;5051785;28;20028;-74
2021/11/07 15:43:30;;;;;;;40.33;11.57;;;11.40;99.90;;;;;;5051787;28;20431;-74
2021/11/07 15:45:59;;;;;;;26.52;8.50;;;11.40;99.90;;;;;;5051633;28;20067;-74
2021/11/07 15:48:29;;;;;;;14.75;6.00;;;11.30;99.90;;;;;;5051081;28;20083;-74
2021/11/07 15:51:07;;;;;;;8.10;3.33;;;11.20;99.90;;;;;;5051029;28;20391;-74
2021/11/07 15:59:01;;;;;;;28.67;9.30;;;11.10;99.90;;;;;;5052309;28;20029;-74
2021/11/07 16:16:53;;;;;;;11.43;6.25;;;10.70;99.90;;;;;;5051822;28;20029;-74
2021/11/07 16:19:22;;;;;;;11.18;5.65;;;10.60;99.90;;;;;;5050457;28;20414;-74
2021/11/07 16:21:50;;;;;;;10.57;6.03;;;10.50;99.90;;;;;;5084213;28;20029;-74
2021/11/07 16:24:25;;;;;;;37.38;13.13;;;10.50;99.90;;;;;;5052244;28;20168;-74
2021/11/07 16:26:54;;;;;;;38.25;13.45;;;10.50;99.90;;;;;;5058854;28;20036;-74
2021/11/07 16:29:28;;;;;;;20.08;7.47;;;10.40;99.90;;;;;;5071797;28;20032;-74
2021/11/07 16:34:31;;;;;;;20.02;8.52;;;10.30;99.90;;;;;;5071509;28;20394;-74
2021/11/07 16:36:57;;;;;;;12.82;7.05;;;10.20;99.90;;;;;;5071388;28;20016;-74
2021/11/07 16:39:36;;;;;;;6.20;4.38;;;10.20;99.90;;;;;;5071615;28;20028;-74
2021/11/07 16:42:11;;;;;;;6.70;4.13;;;10.10;99.90;;;;;;5071466;28;20482;-74
2021/11/07 16:44:38;;;;;;;4.70;4.00;;;10.10;99.90;;;;;;5070056;28;20028;-74